sensor_id;sensor_type;location;lat;lon;timestamp;P1;durP1;ratioP1;P2;durP2;ratioP2
15130;SDS011;7666;50.920;4.628;2023-10-08T00:02:10;5.37;;;2.80;;
15130;SDS011;7666;50.920;4.628;2023-10-08T00:04:56;5.53;;;2.93;;
15130;SDS011;7666;50.920;4.628;2023-10-08T00:07:45;4.13;;;3.10;;
15130;SDS011;7666;50.920;4.628;2023-10-08T00:10:37;8.20;;;3.07;;
15130;SDS011;7666;50.920;4.628;2023-10-08T00:13:28;6.70;;;3.07;;
15130;SDS011;7666;50.920;4.628;2023-10-08T00:16:15;5.13;;;2.90;;
15130;SDS011;7666;50.920;4.628;2023-10-08T00:19:07;5.83;;;3.10;;
15130;SDS011;7666;50.920;4.628;2023-10-08T00:21:54;5.80;;;2.83;;
15130;SDS011;7666;50.920;4.628;2023-10-08T00:24:50;6.43;;;3.17;;
15130;SDS011;7666;50.920;4.628;2023-10-08T00:27:42;5.00;;;2.90;;
15130;SDS011;7666;50.920;4.628;2023-10-08T00:30:28;4.80;;;3.07;;
15130;SDS011;7666;50.920;4.628;2023-10-08T00:33:16;4.93;;;2.80;;
15130;SDS011;7666;50.920;4.628;2023-10-08T00:36:02;4.60;;;2.90;;
15130;SDS011;7666;50.920;4.628;2023-10-08T00:39:05;4.13;;;2.63;;
15130;SDS011;7666;50.920;4.628;2023-10-08T00:41:58;6.87;;;3.20;;
15130;SDS011;7666;50.920;4.628;2023-10-08T00:44:44;5.10;;;2.97;;
15130;SDS011;7666;50.920;4.628;2023-10-08T00:47:36;5.20;;;3.03;;
15130;SDS011;7666;50.920;4.628;2023-10-08T00:50:28;5.60;;;3.37;;
15130;SDS011;7666;50.920;4.628;2023-10-08T00:53:27;6.03;;;3.50;;
15130;SDS011;7666;50.920;4.628;2023-10-08T00:56:13;7.67;;;3.57;;
15130;SDS011;7666;50.920;4.628;2023-10-08T00:59:04;6.70;;;3.07;;
15130;SDS011;7666;50.920;4.628;2023-10-08T01:01:52;4.93;;;2.90;;
15130;SDS011;7666;50.920;4.628;2023-10-08T01:04:45;6.83;;;3.10;;
15130;SDS011;7666;50.920;4.628;2023-10-08T01:07:31;5.07;;;2.87;;
15130;SDS011;7666;50.920;4.628;2023-10-08T01:10:20;7.53;;;3.40;;
15130;SDS011;7666;50.920;4.628;2023-10-08T01:13:10;6.87;;;3.70;;
15130;SDS011;7666;50.920;4.628;2023-10-08T01:16:06;6.47;;;3.03;;
15130;SDS011;7666;50.920;4.628;2023-10-08T01:18:54;9.17;;;3.53;;
15130;SDS011;7666;50.920;4.628;2023-10-08T01:21:40;9.73;;;3.93;;
15130;SDS011;7666;50.920;4.628;2023-10-08T01:24:26;7.27;;;3.20;;
15130;SDS011;7666;50.920;4.628;2023-10-08T01:27:18;6.17;;;3.10;;
15130;SDS011;7666;50.920;4.628;2023-10-08T01:30:14;5.63;;;3.03;;
15130;SDS011;7666;50.920;4.628;2023-10-08T01:33:06;5.07;;;3.37;;
15130;SDS011;7666;50.920;4.628;2023-10-08T01:35:56;6.37;;;3.30;;
15130;SDS011;7666;50.920;4.628;2023-10-08T01:38:50;5.97;;;2.70;;
15130;SDS011;7666;50.920;4.628;2023-10-08T01:41:36;5.70;;;3.17;;
15130;SDS011;7666;50.920;4.628;2023-10-08T01:44:25;5.80;;;2.90;;
15130;SDS011;7666;50.920;4.628;2023-10-08T01:47:12;7.17;;;3.30;;
15130;SDS011;7666;50.920;4.628;2023-10-08T01:50:01;3.80;;;2.67;;
15130;SDS011;7666;50.920;4.628;2023-10-08T01:52:51;5.30;;;2.63;;
15130;SDS011;7666;50.920;4.628;2023-10-08T01:55:37;4.53;;;2.90;;
15130;SDS011;7666;50.920;4.628;2023-10-08T01:58:37;5.47;;;3.33;;
15130;SDS011;7666;50.920;4.628;2023-10-08T02:01:23;5.57;;;3.47;;
15130;SDS011;7666;50.920;4.628;2023-10-08T02:04:09;8.70;;;3.27;;
15130;SDS011;7666;50.920;4.628;2023-10-08T02:06:57;6.70;;;3.13;;
15130;SDS011;7666;50.920;4.628;2023-10-08T02:09:43;8.57;;;3.70;;
15130;SDS011;7666;50.920;4.628;2023-10-08T02:12:29;5.73;;;3.13;;
15130;SDS011;7666;50.920;4.628;2023-10-08T02:15:16;7.57;;;3.77;;
15130;SDS011;7666;50.920;4.628;2023-10-08T02:18:02;8.23;;;3.37;;
15130;SDS011;7666;50.920;4.628;2023-10-08T02:20:49;7.10;;;3.60;;
15130;SDS011;7666;50.920;4.628;2023-10-08T02:23:34;6.53;;;3.60;;
15130;SDS011;7666;50.920;4.628;2023-10-08T02:26:21;5.20;;;3.40;;
15130;SDS011;7666;50.920;4.628;2023-10-08T02:29:09;6.13;;;3.07;;
15130;SDS011;7666;50.920;4.628;2023-10-08T02:31:57;4.37;;;3.13;;
15130;SDS011;7666;50.920;4.628;2023-10-08T02:34:44;5.87;;;3.57;;
15130;SDS011;7666;50.920;4.628;2023-10-08T02:37:30;5.03;;;3.13;;
15130;SDS011;7666;50.920;4.628;2023-10-08T02:40:16;6.63;;;3.47;;
15130;SDS011;7666;50.920;4.628;2023-10-08T02:43:11;6.17;;;3.60;;
15130;SDS011;7666;50.920;4.628;2023-10-08T02:46:00;5.53;;;3.43;;
15130;SDS011;7666;50.920;4.628;2023-10-08T02:48:46;5.87;;;3.23;;
15130;SDS011;7666;50.920;4.628;2023-10-08T02:51:33;6.30;;;3.10;;
15130;SDS011;7666;50.920;4.628;2023-10-08T02:54:20;4.33;;;3.13;;
15130;SDS011;7666;50.920;4.628;2023-10-08T02:57:17;4.87;;;2.97;;
15130;SDS011;7666;50.920;4.628;2023-10-08T03:00:03;6.30;;;3.17;;
15130;SDS011;7666;50.920;4.628;2023-10-08T03:02:49;5.50;;;3.30;;
15130;SDS011;7666;50.920;4.628;2023-10-08T03:05:37;6.90;;;3.47;;
15130;SDS011;7666;50.920;4.628;2023-10-08T03:08:23;6.40;;;3.60;;
15130;SDS011;7666;50.920;4.628;2023-10-08T03:11:09;5.37;;;3.40;;
15130;SDS011;7666;50.920;4.628;2023-10-08T03:14:01;6.37;;;3.40;;
15130;SDS011;7666;50.920;4.628;2023-10-08T03:16:51;5.47;;;3.37;;
15130;SDS011;7666;50.920;4.628;2023-10-08T03:19:39;6.47;;;3.53;;
15130;SDS011;7666;50.920;4.628;2023-10-08T03:22:29;5.93;;;3.57;;
15130;SDS011;7666;50.920;4.628;2023-10-08T03:25:19;4.90;;;3.17;;
15130;SDS011;7666;50.920;4.628;2023-10-08T03:28:05;6.83;;;3.23;;
15130;SDS011;7666;50.920;4.628;2023-10-08T03:30:54;5.07;;;3.37;;
15130;SDS011;7666;50.920;4.628;2023-10-08T03:33:59;5.40;;;3.70;;
15130;SDS011;7666;50.920;4.628;2023-10-08T03:36:46;8.07;;;3.50;;
15130;SDS011;7666;50.920;4.628;2023-10-08T03:39:34;8.00;;;4.00;;
15130;SDS011;7666;50.920;4.628;2023-10-08T03:42:39;6.97;;;3.47;;
15130;SDS011;7666;50.920;4.628;2023-10-08T03:45:34;6.53;;;3.40;;
15130;SDS011;7666;50.920;4.628;2023-10-08T03:48:38;5.63;;;3.17;;
15130;SDS011;7666;50.920;4.628;2023-10-08T03:51:24;5.43;;;3.40;;
15130;SDS011;7666;50.920;4.628;2023-10-08T03:54:12;6.77;;;3.17;;
15130;SDS011;7666;50.920;4.628;2023-10-08T03:57:01;7.33;;;3.73;;
15130;SDS011;7666;50.920;4.628;2023-10-08T03:59:58;5.70;;;3.40;;
15130;SDS011;7666;50.920;4.628;2023-10-08T04:02:44;7.17;;;3.90;;
15130;SDS011;7666;50.920;4.628;2023-10-08T04:05:41;6.30;;;3.37;;
15130;SDS011;7666;50.920;4.628;2023-10-08T04:08:44;5.70;;;3.77;;
15130;SDS011;7666;50.920;4.628;2023-10-08T04:11:44;4.53;;;3.43;;
15130;SDS011;7666;50.920;4.628;2023-10-08T04:14:32;5.90;;;3.63;;
15130;SDS011;7666;50.920;4.628;2023-10-08T04:17:19;6.20;;;3.30;;
15130;SDS011;7666;50.920;4.628;2023-10-08T04:20:08;4.50;;;2.90;;
15130;SDS011;7666;50.920;4.628;2023-10-08T04:23:15;6.40;;;3.20;;
15130;SDS011;7666;50.920;4.628;2023-10-08T04:26:06;5.57;;;3.30;;
15130;SDS011;7666;50.920;4.628;2023-10-08T04:28:55;4.30;;;2.93;;
15130;SDS011;7666;50.920;4.628;2023-10-08T04:31:48;6.20;;;3.30;;
15130;SDS011;7666;50.920;4.628;2023-10-08T04:34:46;7.33;;;3.50;;
15130;SDS011;7666;50.920;4.628;2023-10-08T04:37:32;4.50;;;3.03;;
15130;SDS011;7666;50.920;4.628;2023-10-08T04:40:19;5.77;;;3.33;;
15130;SDS011;7666;50.920;4.628;2023-10-08T04:43:09;4.37;;;3.07;;
15130;SDS011;7666;50.920;4.628;2023-10-08T04:45:56;5.53;;;3.10;;
15130;SDS011;7666;50.920;4.628;2023-10-08T04:48:43;7.43;;;3.97;;
15130;SDS011;7666;50.920;4.628;2023-10-08T04:51:29;4.73;;;3.00;;
15130;SDS011;7666;50.920;4.628;2023-10-08T04:54:19;3.90;;;3.00;;
15130;SDS011;7666;50.920;4.628;2023-10-08T04:57:06;4.33;;;2.90;;
15130;SDS011;7666;50.920;4.628;2023-10-08T05:00:00;10.10;;;3.60;;
15130;SDS011;7666;50.920;4.628;2023-10-08T05:02:54;4.27;;;3.20;;
15130;SDS011;7666;50.920;4.628;2023-10-08T05:05:49;6.93;;;3.57;;
15130;SDS011;7666;50.920;4.628;2023-10-08T05:08:52;6.57;;;3.40;;
15130;SDS011;7666;50.920;4.628;2023-10-08T05:11:45;5.83;;;3.50;;
15130;SDS011;7666;50.920;4.628;2023-10-08T05:14:52;5.33;;;3.47;;
15130;SDS011;7666;50.920;4.628;2023-10-08T05:17:56;6.20;;;3.43;;
15130;SDS011;7666;50.920;4.628;2023-10-08T05:20:43;5.17;;;3.17;;
15130;SDS011;7666;50.920;4.628;2023-10-08T05:23:35;8.90;;;4.40;;
15130;SDS011;7666;50.920;4.628;2023-10-08T05:26:53;24.13;;;9.53;;
15130;SDS011;7666;50.920;4.628;2023-10-08T05:30:02;12.67;;;6.47;;
15130;SDS011;7666;50.920;4.628;2023-10-08T05:33:02;11.07;;;5.40;;
15130;SDS011;7666;50.920;4.628;2023-10-08T05:35:48;25.17;;;10.97;;
15130;SDS011;7666;50.920;4.628;2023-10-08T05:38:35;9.37;;;5.40;;
15130;SDS011;7666;50.920;4.628;2023-10-08T05:41:21;11.20;;;5.57;;
15130;SDS011;7666;50.920;4.628;2023-10-08T05:44:13;11.23;;;5.40;;
15130;SDS011;7666;50.920;4.628;2023-10-08T05:47:02;13.17;;;5.70;;
15130;SDS011;7666;50.920;4.628;2023-10-08T05:50:06;7.50;;;4.70;;
15130;SDS011;7666;50.920;4.628;2023-10-08T05:53:02;9.17;;;4.50;;
15130;SDS011;7666;50.920;4.628;2023-10-08T05:56:09;8.77;;;3.97;;
15130;SDS011;7666;50.920;4.628;2023-10-08T05:59:13;6.83;;;3.50;;
15130;SDS011;7666;50.920;4.628;2023-10-08T06:02:03;9.27;;;3.80;;
15130;SDS011;7666;50.920;4.628;2023-10-08T06:05:09;10.00;;;4.40;;
15130;SDS011;7666;50.920;4.628;2023-10-08T06:07:58;8.70;;;4.27;;
15130;SDS011;7666;50.920;4.628;2023-10-08T06:10:57;8.23;;;4.40;;
15130;SDS011;7666;50.920;4.628;2023-10-08T06:13:46;4.83;;;3.60;;
15130;SDS011;7666;50.920;4.628;2023-10-08T06:16:41;8.40;;;4.30;;
15130;SDS011;7666;50.920;4.628;2023-10-08T06:19:27;5.67;;;3.70;;
15130;SDS011;7666;50.920;4.628;2023-10-08T06:22:13;6.10;;;3.43;;
15130;SDS011;7666;50.920;4.628;2023-10-08T06:24:59;6.40;;;3.93;;
15130;SDS011;7666;50.920;4.628;2023-10-08T06:28:03;5.43;;;3.40;;
15130;SDS011;7666;50.920;4.628;2023-10-08T06:30:49;6.13;;;3.20;;
15130;SDS011;7666;50.920;4.628;2023-10-08T06:33:39;5.83;;;3.57;;
15130;SDS011;7666;50.920;4.628;2023-10-08T06:36:26;5.10;;;3.43;;
15130;SDS011;7666;50.920;4.628;2023-10-08T06:39:13;5.83;;;3.57;;
15130;SDS011;7666;50.920;4.628;2023-10-08T06:42:04;5.17;;;3.30;;
15130;SDS011;7666;50.920;4.628;2023-10-08T06:44:50;5.63;;;3.00;;
15130;SDS011;7666;50.920;4.628;2023-10-08T06:47:38;8.73;;;3.60;;
15130;SDS011;7666;50.920;4.628;2023-10-08T06:50:25;9.70;;;3.80;;
15130;SDS011;7666;50.920;4.628;2023-10-08T06:53:11;7.80;;;4.20;;
15130;SDS011;7666;50.920;4.628;2023-10-08T06:55:59;4.73;;;2.60;;
15130;SDS011;7666;50.920;4.628;2023-10-08T06:58:49;6.13;;;3.60;;
15130;SDS011;7666;50.920;4.628;2023-10-08T07:01:38;5.67;;;3.63;;
15130;SDS011;7666;50.920;4.628;2023-10-08T07:04:24;5.60;;;3.30;;
15130;SDS011;7666;50.920;4.628;2023-10-08T07:07:11;5.57;;;3.30;;
15130;SDS011;7666;50.920;4.628;2023-10-08T07:10:04;6.03;;;3.40;;
15130;SDS011;7666;50.920;4.628;2023-10-08T07:12:50;5.53;;;3.17;;
15130;SDS011;7666;50.920;4.628;2023-10-08T07:15:38;7.87;;;3.33;;
15130;SDS011;7666;50.920;4.628;2023-10-08T07:18:26;5.60;;;3.23;;
15130;SDS011;7666;50.920;4.628;2023-10-08T07:21:12;5.80;;;3.20;;
15130;SDS011;7666;50.920;4.628;2023-10-08T07:23:58;7.80;;;3.30;;
15130;SDS011;7666;50.920;4.628;2023-10-08T07:26:50;5.67;;;3.30;;
15130;SDS011;7666;50.920;4.628;2023-10-08T07:29:41;5.77;;;3.23;;
15130;SDS011;7666;50.920;4.628;2023-10-08T07:32:27;6.57;;;3.73;;
15130;SDS011;7666;50.920;4.628;2023-10-08T07:35:15;4.40;;;3.10;;
15130;SDS011;7666;50.920;4.628;2023-10-08T07:38:11;6.30;;;3.30;;
15130;SDS011;7666;50.920;4.628;2023-10-08T07:40:57;6.90;;;3.07;;
15130;SDS011;7666;50.920;4.628;2023-10-08T07:43:43;6.37;;;3.40;;
15130;SDS011;7666;50.920;4.628;2023-10-08T07:46:31;5.60;;;3.17;;
15130;SDS011;7666;50.920;4.628;2023-10-08T07:49:18;7.80;;;4.03;;
15130;SDS011;7666;50.920;4.628;2023-10-08T07:52:04;6.30;;;3.53;;
15130;SDS011;7666;50.920;4.628;2023-10-08T07:54:50;10.73;;;3.87;;
15130;SDS011;7666;50.920;4.628;2023-10-08T07:57:38;8.00;;;3.80;;
15130;SDS011;7666;50.920;4.628;2023-10-08T08:00:24;9.80;;;5.17;;
15130;SDS011;7666;50.920;4.628;2023-10-08T08:03:16;11.50;;;4.50;;
15130;SDS011;7666;50.920;4.628;2023-10-08T08:06:08;8.50;;;4.03;;
15130;SDS011;7666;50.920;4.628;2023-10-08T08:08:54;9.33;;;3.90;;
15130;SDS011;7666;50.920;4.628;2023-10-08T08:11:41;7.67;;;4.17;;
15130;SDS011;7666;50.920;4.628;2023-10-08T08:14:26;8.50;;;3.87;;
15130;SDS011;7666;50.920;4.628;2023-10-08T08:17:14;11.13;;;4.67;;
15130;SDS011;7666;50.920;4.628;2023-10-08T08:20:00;10.50;;;4.80;;
15130;SDS011;7666;50.920;4.628;2023-10-08T08:23:02;8.30;;;3.97;;
15130;SDS011;7666;50.920;4.628;2023-10-08T08:25:52;9.90;;;4.47;;
15130;SDS011;7666;50.920;4.628;2023-10-08T08:28:58;9.87;;;4.63;;
15130;SDS011;7666;50.920;4.628;2023-10-08T08:31:47;15.73;;;5.30;;
15130;SDS011;7666;50.920;4.628;2023-10-08T08:34:33;9.50;;;4.40;;
15130;SDS011;7666;50.920;4.628;2023-10-08T08:37:19;7.87;;;4.50;;
15130;SDS011;7666;50.920;4.628;2023-10-08T08:40:08;10.47;;;4.60;;
15130;SDS011;7666;50.920;4.628;2023-10-08T08:42:55;9.13;;;4.60;;
15130;SDS011;7666;50.920;4.628;2023-10-08T08:45:44;7.03;;;3.83;;
15130;SDS011;7666;50.920;4.628;2023-10-08T08:48:34;8.10;;;3.90;;
15130;SDS011;7666;50.920;4.628;2023-10-08T08:51:23;9.63;;;4.50;;
15130;SDS011;7666;50.920;4.628;2023-10-08T08:54:09;10.73;;;4.97;;
15130;SDS011;7666;50.920;4.628;2023-10-08T08:56:57;13.57;;;4.93;;
15130;SDS011;7666;50.920;4.628;2023-10-08T08:59:54;11.13;;;4.80;;
15130;SDS011;7666;50.920;4.628;2023-10-08T09:02:46;9.83;;;4.60;;
15130;SDS011;7666;50.920;4.628;2023-10-08T09:05:32;8.67;;;4.50;;
15130;SDS011;7666;50.920;4.628;2023-10-08T09:08:20;9.67;;;4.37;;
15130;SDS011;7666;50.920;4.628;2023-10-08T09:11:13;11.70;;;4.90;;
15130;SDS011;7666;50.920;4.628;2023-10-08T09:14:02;9.60;;;4.50;;
15130;SDS011;7666;50.920;4.628;2023-10-08T09:16:54;10.57;;;4.87;;
15130;SDS011;7666;50.920;4.628;2023-10-08T09:19:40;11.77;;;5.23;;
15130;SDS011;7666;50.920;4.628;2023-10-08T09:22:26;11.83;;;5.07;;
15130;SDS011;7666;50.920;4.628;2023-10-08T09:25:22;9.20;;;5.20;;
15130;SDS011;7666;50.920;4.628;2023-10-08T09:28:10;12.83;;;5.20;;
15130;SDS011;7666;50.920;4.628;2023-10-08T09:30:59;11.87;;;5.10;;
15130;SDS011;7666;50.920;4.628;2023-10-08T09:33:53;16.07;;;5.63;;
15130;SDS011;7666;50.920;4.628;2023-10-08T09:36:40;9.07;;;5.00;;
15130;SDS011;7666;50.920;4.628;2023-10-08T09:39:28;15.27;;;5.83;;
15130;SDS011;7666;50.920;4.628;2023-10-08T09:42:19;9.93;;;5.20;;
15130;SDS011;7666;50.920;4.628;2023-10-08T09:45:08;13.43;;;5.90;;
15130;SDS011;7666;50.920;4.628;2023-10-08T09:47:54;11.73;;;5.30;;
15130;SDS011;7666;50.920;4.628;2023-10-08T09:50:41;10.83;;;5.30;;
15130;SDS011;7666;50.920;4.628;2023-10-08T09:53:31;14.77;;;5.67;;
15130;SDS011;7666;50.920;4.628;2023-10-08T09:56:25;18.20;;;5.23;;
15130;SDS011;7666;50.920;4.628;2023-10-08T09:59:14;12.43;;;5.83;;
15130;SDS011;7666;50.920;4.628;2023-10-08T10:02:01;13.40;;;5.40;;
15130;SDS011;7666;50.920;4.628;2023-10-08T10:04:49;10.93;;;5.77;;
15130;SDS011;7666;50.920;4.628;2023-10-08T10:07:37;9.53;;;5.00;;
15130;SDS011;7666;50.920;4.628;2023-10-08T10:10:29;11.33;;;5.30;;
15130;SDS011;7666;50.920;4.628;2023-10-08T10:13:17;14.20;;;5.97;;
15130;SDS011;7666;50.920;4.628;2023-10-08T10:16:04;13.10;;;5.63;;
15130;SDS011;7666;50.920;4.628;2023-10-08T10:18:56;11.43;;;4.73;;
15130;SDS011;7666;50.920;4.628;2023-10-08T10:21:44;13.73;;;5.27;;
15130;SDS011;7666;50.920;4.628;2023-10-08T10:24:33;14.37;;;5.13;;
15130;SDS011;7666;50.920;4.628;2023-10-08T10:27:21;9.70;;;4.90;;
15130;SDS011;7666;50.920;4.628;2023-10-08T10:30:07;11.77;;;5.40;;
15130;SDS011;7666;50.920;4.628;2023-10-08T10:32:54;10.97;;;4.87;;
15130;SDS011;7666;50.920;4.628;2023-10-08T10:35:51;8.90;;;4.87;;
15130;SDS011;7666;50.920;4.628;2023-10-08T10:38:37;13.80;;;5.63;;
15130;SDS011;7666;50.920;4.628;2023-10-08T10:41:27;11.57;;;5.00;;
15130;SDS011;7666;50.920;4.628;2023-10-08T10:44:14;10.17;;;5.03;;
15130;SDS011;7666;50.920;4.628;2023-10-08T10:47:01;10.63;;;5.13;;
15130;SDS011;7666;50.920;4.628;2023-10-08T10:50:10;11.13;;;4.93;;
15130;SDS011;7666;50.920;4.628;2023-10-08T10:53:19;12.93;;;5.60;;
15130;SDS011;7666;50.920;4.628;2023-10-08T10:56:05;11.77;;;4.90;;
15130;SDS011;7666;50.920;4.628;2023-10-08T10:59:01;12.47;;;5.10;;
15130;SDS011;7666;50.920;4.628;2023-10-08T11:02:08;12.27;;;5.60;;
15130;SDS011;7666;50.920;4.628;2023-10-08T11:04:54;11.03;;;4.83;;
15130;SDS011;7666;50.920;4.628;2023-10-08T11:07:40;12.77;;;5.63;;
15130;SDS011;7666;50.920;4.628;2023-10-08T11:10:26;12.47;;;5.40;;
15130;SDS011;7666;50.920;4.628;2023-10-08T11:13:13;9.27;;;5.00;;
15130;SDS011;7666;50.920;4.628;2023-10-08T11:16:02;8.50;;;4.77;;
15130;SDS011;7666;50.920;4.628;2023-10-08T11:18:49;10.93;;;5.20;;
15130;SDS011;7666;50.920;4.628;2023-10-08T11:21:51;12.77;;;5.83;;
15130;SDS011;7666;50.920;4.628;2023-10-08T11:24:41;9.37;;;5.07;;
15130;SDS011;7666;50.920;4.628;2023-10-08T11:27:29;11.37;;;5.33;;
15130;SDS011;7666;50.920;4.628;2023-10-08T11:30:20;12.00;;;5.63;;
15130;SDS011;7666;50.920;4.628;2023-10-08T11:33:07;10.30;;;4.77;;
15130;SDS011;7666;50.920;4.628;2023-10-08T11:36:03;8.27;;;5.03;;
15130;SDS011;7666;50.920;4.628;2023-10-08T11:39:10;9.67;;;4.83;;
15130;SDS011;7666;50.920;4.628;2023-10-08T11:42:06;10.00;;;5.30;;
15130;SDS011;7666;50.920;4.628;2023-10-08T11:45:11;9.60;;;5.27;;
15130;SDS011;7666;50.920;4.628;2023-10-08T11:48:03;8.43;;;4.70;;
15130;SDS011;7666;50.920;4.628;2023-10-08T11:50:57;8.67;;;5.40;;
15130;SDS011;7666;50.920;4.628;2023-10-08T11:53:46;9.73;;;4.97;;
15130;SDS011;7666;50.920;4.628;2023-10-08T11:56:33;10.80;;;4.97;;
15130;SDS011;7666;50.920;4.628;2023-10-08T11:59:19;7.93;;;4.57;;
15130;SDS011;7666;50.920;4.628;2023-10-08T12:02:08;13.27;;;5.57;;
15130;SDS011;7666;50.920;4.628;2023-10-08T12:04:54;9.60;;;4.93;;
15130;SDS011;7666;50.920;4.628;2023-10-08T12:07:42;9.33;;;4.73;;
15130;SDS011;7666;50.920;4.628;2023-10-08T12:10:29;9.87;;;5.07;;
15130;SDS011;7666;50.920;4.628;2023-10-08T12:13:20;8.90;;;4.78;;
15130;SDS011;7666;50.920;4.628;2023-10-08T12:16:14;11.65;;;5.20;;
15130;SDS011;7666;50.920;4.628;2023-10-08T12:19:03;8.20;;;4.90;;
15130;SDS011;7666;50.920;4.628;2023-10-08T12:22:00;10.13;;;4.87;;
15130;SDS011;7666;50.920;4.628;2023-10-08T12:24:48;8.48;;;4.53;;
15130;SDS011;7666;50.920;4.628;2023-10-08T12:27:34;11.33;;;5.50;;
15130;SDS011;7666;50.920;4.628;2023-10-08T12:30:20;8.87;;;4.97;;
15130;SDS011;7666;50.920;4.628;2023-10-08T12:33:15;12.30;;;5.47;;
15130;SDS011;7666;50.920;4.628;2023-10-08T12:36:02;12.32;;;5.82;;
15130;SDS011;7666;50.920;4.628;2023-10-08T12:38:56;10.83;;;5.33;;
15130;SDS011;7666;50.920;4.628;2023-10-08T12:41:45;15.07;;;5.85;;
15130;SDS011;7666;50.920;4.628;2023-10-08T12:44:31;11.02;;;5.82;;
15130;SDS011;7666;50.920;4.628;2023-10-08T12:47:18;10.32;;;5.38;;
15130;SDS011;7666;50.920;4.628;2023-10-08T12:50:05;11.88;;;6.00;;
15130;SDS011;7666;50.920;4.628;2023-10-08T12:52:53;10.38;;;5.45;;
15130;SDS011;7666;50.920;4.628;2023-10-08T12:55:40;8.63;;;5.05;;
15130;SDS011;7666;50.920;4.628;2023-10-08T12:58:26;12.02;;;5.50;;
15130;SDS011;7666;50.920;4.628;2023-10-08T13:01:15;10.52;;;5.60;;
15130;SDS011;7666;50.920;4.628;2023-10-08T13:04:04;14.50;;;6.32;;
15130;SDS011;7666;50.920;4.628;2023-10-08T13:07:01;9.73;;;5.47;;
15130;SDS011;7666;50.920;4.628;2023-10-08T13:09:48;13.32;;;5.57;;
15130;SDS011;7666;50.920;4.628;2023-10-08T13:12:34;11.13;;;5.43;;
15130;SDS011;7666;50.920;4.628;2023-10-08T13:15:20;12.90;;;4.95;;
15130;SDS011;7666;50.920;4.628;2023-10-08T13:18:11;9.65;;;5.18;;
15130;SDS011;7666;50.920;4.628;2023-10-08T13:20:57;11.20;;;5.18;;
15130;SDS011;7666;50.920;4.628;2023-10-08T13:23:43;10.90;;;5.77;;
15130;SDS011;7666;50.920;4.628;2023-10-08T13:26:29;9.40;;;5.65;;
15130;SDS011;7666;50.920;4.628;2023-10-08T13:29:18;9.30;;;6.03;;
15130;SDS011;7666;50.920;4.628;2023-10-08T13:32:04;8.88;;;5.50;;
15130;SDS011;7666;50.920;4.628;2023-10-08T13:34:50;9.82;;;5.35;;
15130;SDS011;7666;50.920;4.628;2023-10-08T13:37:36;10.87;;;5.67;;
15130;SDS011;7666;50.920;4.628;2023-10-08T13:40:22;10.67;;;5.83;;
15130;SDS011;7666;50.920;4.628;2023-10-08T13:43:18;9.30;;;5.70;;
15130;SDS011;7666;50.920;4.628;2023-10-08T13:46:04;10.40;;;5.87;;
15130;SDS011;7666;50.920;4.628;2023-10-08T13:49:00;11.10;;;5.77;;
15130;SDS011;7666;50.920;4.628;2023-10-08T13:51:46;8.87;;;5.50;;
15130;SDS011;7666;50.920;4.628;2023-10-08T13:54:41;10.60;;;5.80;;
15130;SDS011;7666;50.920;4.628;2023-10-08T13:57:27;7.37;;;5.30;;
15130;SDS011;7666;50.920;4.628;2023-10-08T14:00:14;9.93;;;5.70;;
15130;SDS011;7666;50.920;4.628;2023-10-08T14:03:11;9.17;;;5.77;;
15130;SDS011;7666;50.920;4.628;2023-10-08T14:05:59;10.13;;;5.70;;
15130;SDS011;7666;50.920;4.628;2023-10-08T14:08:50;10.10;;;5.90;;
15130;SDS011;7666;50.920;4.628;2023-10-08T14:11:40;11.13;;;5.90;;
15130;SDS011;7666;50.920;4.628;2023-10-08T14:14:26;8.47;;;5.70;;
15130;SDS011;7666;50.920;4.628;2023-10-08T14:17:15;10.23;;;5.03;;
15130;SDS011;7666;50.920;4.628;2023-10-08T14:20:01;9.50;;;5.43;;
15130;SDS011;7666;50.920;4.628;2023-10-08T14:22:53;9.83;;;5.43;;
15130;SDS011;7666;50.920;4.628;2023-10-08T14:25:43;8.93;;;5.55;;
15130;SDS011;7666;50.920;4.628;2023-10-08T14:28:30;11.20;;;5.53;;
15130;SDS011;7666;50.920;4.628;2023-10-08T14:31:26;10.50;;;5.77;;
15130;SDS011;7666;50.920;4.628;2023-10-08T14:34:12;12.73;;;6.47;;
15130;SDS011;7666;50.920;4.628;2023-10-08T14:37:04;8.70;;;5.80;;
15130;SDS011;7666;50.920;4.628;2023-10-08T14:40:09;9.03;;;5.60;;
15130;SDS011;7666;50.920;4.628;2023-10-08T14:43:13;8.93;;;5.53;;
15130;SDS011;7666;50.920;4.628;2023-10-08T14:46:01;12.10;;;5.50;;
15130;SDS011;7666;50.920;4.628;2023-10-08T14:48:54;9.10;;;5.60;;
15130;SDS011;7666;50.920;4.628;2023-10-08T14:51:40;10.70;;;5.97;;
15130;SDS011;7666;50.920;4.628;2023-10-08T14:54:26;12.83;;;6.83;;
15130;SDS011;7666;50.920;4.628;2023-10-08T14:57:13;9.20;;;5.93;;
15130;SDS011;7666;50.920;4.628;2023-10-08T14:59:59;7.67;;;4.70;;
15130;SDS011;7666;50.920;4.628;2023-10-08T15:02:50;9.40;;;5.30;;
15130;SDS011;7666;50.920;4.628;2023-10-08T15:05:39;8.50;;;5.13;;
15130;SDS011;7666;50.920;4.628;2023-10-08T15:08:25;8.20;;;5.53;;
15130;SDS011;7666;50.920;4.628;2023-10-08T15:11:12;13.03;;;5.57;;
15130;SDS011;7666;50.920;4.628;2023-10-08T15:13:58;10.73;;;5.50;;
15130;SDS011;7666;50.920;4.628;2023-10-08T15:16:44;10.67;;;5.53;;
15130;SDS011;7666;50.920;4.628;2023-10-08T15:19:32;10.50;;;5.20;;
15130;SDS011;7666;50.920;4.628;2023-10-08T15:22:18;7.07;;;5.07;;
15130;SDS011;7666;50.920;4.628;2023-10-08T15:25:04;10.73;;;5.37;;
15130;SDS011;7666;50.920;4.628;2023-10-08T15:27:50;7.97;;;5.00;;
15130;SDS011;7666;50.920;4.628;2023-10-08T15:30:36;7.97;;;5.10;;
15130;SDS011;7666;50.920;4.628;2023-10-08T15:33:23;8.27;;;5.30;;
15130;SDS011;7666;50.920;4.628;2023-10-08T15:36:11;9.03;;;5.33;;
15130;SDS011;7666;50.920;4.628;2023-10-08T15:38:58;7.70;;;4.83;;
15130;SDS011;7666;50.920;4.628;2023-10-08T15:41:44;7.27;;;4.60;;
15130;SDS011;7666;50.920;4.628;2023-10-08T15:44:30;9.23;;;4.60;;
15130;SDS011;7666;50.920;4.628;2023-10-08T15:47:16;6.90;;;4.90;;
15130;SDS011;7666;50.920;4.628;2023-10-08T15:50:02;7.53;;;4.50;;
15130;SDS011;7666;50.920;4.628;2023-10-08T15:52:50;7.83;;;4.30;;
15130;SDS011;7666;50.920;4.628;2023-10-08T15:55:36;6.63;;;4.83;;
15130;SDS011;7666;50.920;4.628;2023-10-08T15:58:22;8.83;;;4.77;;
15130;SDS011;7666;50.920;4.628;2023-10-08T16:01:08;10.47;;;5.30;;
15130;SDS011;7666;50.920;4.628;2023-10-08T16:03:55;7.23;;;4.57;;
15130;SDS011;7666;50.920;4.628;2023-10-08T16:06:41;7.13;;;4.57;;
15130;SDS011;7666;50.920;4.628;2023-10-08T16:09:27;7.20;;;4.27;;
15130;SDS011;7666;50.920;4.628;2023-10-08T16:12:13;10.87;;;5.13;;
15130;SDS011;7666;50.920;4.628;2023-10-08T16:14:59;4.93;;;4.30;;
15130;SDS011;7666;50.920;4.628;2023-10-08T16:17:45;6.50;;;4.73;;
15130;SDS011;7666;50.920;4.628;2023-10-08T16:20:31;6.93;;;3.93;;
15130;SDS011;7666;50.920;4.628;2023-10-08T16:23:18;7.83;;;5.00;;
15130;SDS011;7666;50.920;4.628;2023-10-08T16:26:04;6.80;;;4.60;;
15130;SDS011;7666;50.920;4.628;2023-10-08T16:28:51;7.27;;;4.43;;
15130;SDS011;7666;50.920;4.628;2023-10-08T16:31:37;7.57;;;5.30;;
15130;SDS011;7666;50.920;4.628;2023-10-08T16:34:26;6.17;;;4.37;;
15130;SDS011;7666;50.920;4.628;2023-10-08T16:37:12;6.47;;;3.93;;
15130;SDS011;7666;50.920;4.628;2023-10-08T16:40:07;6.73;;;4.33;;
15130;SDS011;7666;50.920;4.628;2023-10-08T16:42:54;5.50;;;4.67;;
15130;SDS011;7666;50.920;4.628;2023-10-08T16:45:40;7.73;;;4.63;;
15130;SDS011;7666;50.920;4.628;2023-10-08T16:48:28;8.97;;;4.80;;
15130;SDS011;7666;50.920;4.628;2023-10-08T16:51:14;6.10;;;4.37;;
15130;SDS011;7666;50.920;4.628;2023-10-08T16:54:02;7.37;;;4.83;;
15130;SDS011;7666;50.920;4.628;2023-10-08T16:56:49;6.50;;;4.43;;
15130;SDS011;7666;50.920;4.628;2023-10-08T16:59:35;6.97;;;4.23;;
15130;SDS011;7666;50.920;4.628;2023-10-08T17:02:23;6.60;;;4.83;;
15130;SDS011;7666;50.920;4.628;2023-10-08T17:05:09;6.57;;;4.57;;
15130;SDS011;7666;50.920;4.628;2023-10-08T17:08:02;5.67;;;4.50;;
15130;SDS011;7666;50.920;4.628;2023-10-08T17:10:49;5.40;;;4.17;;
15130;SDS011;7666;50.920;4.628;2023-10-08T17:13:36;8.53;;;5.00;;
15130;SDS011;7666;50.920;4.628;2023-10-08T17:16:22;8.67;;;4.90;;